createdAt,value
2018-10-21T00:01:39.161Z,79.20
2018-10-21T00:04:06.462Z,79.60
2018-10-21T00:06:33.657Z,79.30
2018-10-21T00:09:00.982Z,79.20
2018-10-21T00:11:28.154Z,79.50
2018-10-21T00:13:55.369Z,79.80
2018-10-21T00:16:22.557Z,80.20
2018-10-21T00:18:49.775Z,80.40
2018-10-21T00:21:16.982Z,80.60
2018-10-21T00:23:44.205Z,80.80
2018-10-21T00:26:11.383Z,80.90
2018-10-21T00:28:38.584Z,80.60
2018-10-21T00:31:05.814Z,80.60
2018-10-21T00:33:33.008Z,80.30
2018-10-21T00:36:00.433Z,80.20
2018-10-21T00:38:27.614Z,80.10
2018-10-21T00:40:54.850Z,79.80
2018-10-21T00:43:22.024Z,79.90
2018-10-21T00:45:49.190Z,80.20
2018-10-21T00:48:16.426Z,80.50
2018-10-21T00:50:43.617Z,80.70
2018-10-21T00:53:10.798Z,80.80
2018-10-21T00:55:37.972Z,81.00
2018-10-21T00:58:05.257Z,80.90
2018-10-21T01:00:33.503Z,81.10
2018-10-21T01:03:00.740Z,81.20
2018-10-21T01:05:27.885Z,81.00
2018-10-21T01:07:55.093Z,80.90
2018-10-21T01:10:22.284Z,81.00
2018-10-21T01:12:50.548Z,81.10
2018-10-21T01:15:17.813Z,81.10
2018-10-21T01:20:18.825Z,80.80
2018-10-21T01:22:52.758Z,80.70
2018-10-21T01:25:19.931Z,80.70
2018-10-21T01:27:47.093Z,80.70
2018-10-21T01:30:14.345Z,80.90
2018-10-21T01:32:41.516Z,81.10
2018-10-21T01:35:08.788Z,81.00
2018-10-21T01:37:36.318Z,81.30
2018-10-21T01:40:42.111Z,81.20
2018-10-21T01:43:10.600Z,81.70
2018-10-21T01:45:37.819Z,81.40
2018-10-21T01:48:06.248Z,81.60
2018-10-21T01:50:33.429Z,81.30
2018-10-21T01:53:02.762Z,81.40
2018-10-21T01:55:29.961Z,81.40
2018-10-21T01:57:57.926Z,81.50
2018-10-21T02:00:25.686Z,82.10
2018-10-21T02:02:53.423Z,81.30
2018-10-21T02:05:20.778Z,81.70
2018-10-21T02:07:47.994Z,81.30
2018-10-21T02:10:15.362Z,81.70
2018-10-21T02:12:42.521Z,81.70
2018-10-21T02:15:10.606Z,81.80
2018-10-21T02:17:37.734Z,82.10
2018-10-21T02:20:05.573Z,81.60
2018-10-21T02:22:32.749Z,82.20
2018-10-21T02:24:59.919Z,82.50
2018-10-21T02:27:27.225Z,82.70
2018-10-21T02:29:54.406Z,82.80
2018-10-21T02:32:24.546Z,82.80
2018-10-21T02:34:51.920Z,81.60
2018-10-21T02:37:19.156Z,81.80
2018-10-21T02:39:46.362Z,82.40
2018-10-21T02:42:13.581Z,82.80
2018-10-21T02:44:40.783Z,83.20
2018-10-21T02:47:08.009Z,83.10
2018-10-21T02:49:35.177Z,83.70
2018-10-21T02:52:07.118Z,83.40
2018-10-21T02:54:35.053Z,83.60
2018-10-21T02:57:03.308Z,83.60
2018-10-21T02:59:30.444Z,83.80
2018-10-21T03:01:57.693Z,84.20
2018-10-21T03:04:24.901Z,84.30
2018-10-21T03:06:52.271Z,84.60
2018-10-21T03:09:19.488Z,85.00
2018-10-21T03:11:46.658Z,85.30
2018-10-21T03:14:13.948Z,85.10
2018-10-21T03:16:41.191Z,85.60
2018-10-21T03:19:08.422Z,85.60
2018-10-21T03:21:35.628Z,85.60
2018-10-21T03:24:02.824Z,85.50
2018-10-21T03:26:30.042Z,85.70
2018-10-21T03:28:57.228Z,85.70
2018-10-21T03:31:24.430Z,85.60
2018-10-21T03:33:51.730Z,85.60
2018-10-21T03:36:18.860Z,85.60
2018-10-21T03:38:46.069Z,86.10
2018-10-21T03:41:13.266Z,85.80
2018-10-21T03:43:40.457Z,85.80
2018-10-21T03:46:08.040Z,85.90
2018-10-21T03:48:35.265Z,85.90
2018-10-21T03:51:02.482Z,85.90
2018-10-21T03:53:29.710Z,86.10
2018-10-21T03:55:57.042Z,86.20
2018-10-21T03:58:24.240Z,86.00
2018-10-21T04:00:51.445Z,85.80
2018-10-21T04:03:25.252Z,86.40
2018-10-21T04:05:52.507Z,86.50
2018-10-21T04:08:19.700Z,86.80
2018-10-21T04:10:46.892Z,86.80
2018-10-21T04:13:14.101Z,86.80
2018-10-21T04:15:41.313Z,87.00
2018-10-21T04:18:08.528Z,87.10
2018-10-21T04:20:35.706Z,87.30
2018-10-21T04:23:03.456Z,87.20
2018-10-21T04:25:31.757Z,87.60
2018-10-21T04:28:06.473Z,87.50
2018-10-21T04:30:34.850Z,87.60
2018-10-21T04:34:09.807Z,87.80
2018-10-21T04:36:37.031Z,87.40
2018-10-21T04:39:45.174Z,87.20
2018-10-21T04:42:12.353Z,88.10
2018-10-21T04:44:39.536Z,87.70
2018-10-21T04:47:06.885Z,88.10
2018-10-21T04:49:33.908Z,88.00
2018-10-21T04:52:01.112Z,88.30
2018-10-21T04:54:32.882Z,88.10
2018-10-21T04:57:00.065Z,87.50
2018-10-21T04:59:27.241Z,87.60
2018-10-21T05:01:54.973Z,87.80
2018-10-21T05:04:22.148Z,88.40
2018-10-21T05:06:49.368Z,87.60
2018-10-21T05:09:16.592Z,87.80
2018-10-21T05:11:43.769Z,87.90
2018-10-21T05:14:10.949Z,88.00
2018-10-21T05:16:38.186Z,88.10
2018-10-21T05:19:05.354Z,88.50
2018-10-21T05:21:32.520Z,88.80
2018-10-21T05:23:59.792Z,88.60
2018-10-21T05:26:26.901Z,88.30
2018-10-21T05:28:54.075Z,88.50
2018-10-21T05:31:21.260Z,88.20
2018-10-21T05:33:48.455Z,87.90
2018-10-21T05:36:15.654Z,88.20
2018-10-21T05:38:42.878Z,88.40
2018-10-21T05:41:10.063Z,89.10
2018-10-21T05:43:38.320Z,88.40
2018-10-21T05:46:05.647Z,88.70
2018-10-21T05:48:32.769Z,89.20
2018-10-21T05:50:59.966Z,89.30
2018-10-21T05:53:27.139Z,89.30
2018-10-21T05:55:54.322Z,89.60
2018-10-21T05:58:21.533Z,89.80
2018-10-21T06:00:48.698Z,88.70
2018-10-21T06:03:15.864Z,88.70
2018-10-21T06:05:46.258Z,88.80
2018-10-21T06:08:13.444Z,88.90
2018-10-21T06:10:41.265Z,89.60
2018-10-21T06:13:08.734Z,89.30
2018-10-21T06:15:36.041Z,89.90
2018-10-21T06:18:04.757Z,90.00
2018-10-21T06:20:37.079Z,89.90
2018-10-21T06:23:04.444Z,89.60
2018-10-21T06:25:31.665Z,89.40
2018-10-21T06:27:58.829Z,89.10
2018-10-21T06:30:26.045Z,89.00
2018-10-21T06:32:53.221Z,88.40
2018-10-21T06:35:20.398Z,88.60
2018-10-21T06:37:47.605Z,88.70
2018-10-21T06:40:14.768Z,89.50
2018-10-21T06:42:41.957Z,89.50
2018-10-21T06:45:16.254Z,89.60
2018-10-21T06:47:43.255Z,90.00
2018-10-21T06:50:15.628Z,89.60
2018-10-21T06:52:42.841Z,89.70
2018-10-21T06:55:10.257Z,90.00
2018-10-21T06:57:37.518Z,89.70
2018-10-21T07:00:05.412Z,90.00
2018-10-21T07:02:32.597Z,89.70
2018-10-21T07:04:59.870Z,90.00
2018-10-21T07:07:27.030Z,89.80
2018-10-21T07:09:54.255Z,90.00
2018-10-21T07:12:21.405Z,89.70
2018-10-21T07:14:48.581Z,89.60
2018-10-21T07:17:15.805Z,89.70
2018-10-21T07:19:43.046Z,89.60
2018-10-21T07:22:10.274Z,89.10
2018-10-21T07:24:37.433Z,88.90
2018-10-21T07:27:04.929Z,88.50
2018-10-21T07:29:32.205Z,88.10
2018-10-21T07:31:59.398Z,88.20
2018-10-21T07:34:26.560Z,89.20
2018-10-21T07:36:53.776Z,88.70
2018-10-21T07:39:21.016Z,88.60
2018-10-21T07:41:48.194Z,88.40
2018-10-21T07:44:15.421Z,88.10
2018-10-21T07:46:42.730Z,87.90
2018-10-21T07:49:10.119Z,88.50
2018-10-21T07:51:37.252Z,88.00
2018-10-21T07:54:04.809Z,88.00
2018-10-21T07:56:31.986Z,88.20
2018-10-21T07:59:00.316Z,88.00
2018-10-21T08:01:27.774Z,87.70
2018-10-21T08:03:54.999Z,87.90
2018-10-21T08:06:35.025Z,88.50
2018-10-21T08:09:03.842Z,88.40
2018-10-21T08:11:31.070Z,88.00
2018-10-21T08:13:58.344Z,87.50
2018-10-21T08:16:25.524Z,87.60
2018-10-21T08:18:53.034Z,87.40
2018-10-21T08:21:27.146Z,87.00
2018-10-21T08:23:54.379Z,87.70
2018-10-21T08:26:21.620Z,88.00
2018-10-21T08:28:48.923Z,87.40
2018-10-21T08:31:16.180Z,87.50
2018-10-21T08:33:43.607Z,87.00
2018-10-21T08:36:10.906Z,86.60
2018-10-21T08:38:38.133Z,86.20
2018-10-21T08:41:06.496Z,86.60
2018-10-21T08:43:33.825Z,86.20
2018-10-21T08:46:01.143Z,86.60
2018-10-21T08:48:28.401Z,86.30
2018-10-21T08:50:55.629Z,86.30
2018-10-21T08:53:22.913Z,86.20
2018-10-21T08:55:50.137Z,85.40
2018-10-21T08:58:17.362Z,85.10
2018-10-21T09:00:44.526Z,85.00
2018-10-21T09:03:11.730Z,85.00
2018-10-21T09:05:38.925Z,85.10
2018-10-21T09:08:06.223Z,85.10
2018-10-21T09:10:33.487Z,84.70
2018-10-21T09:13:01.459Z,83.30
2018-10-21T09:15:28.681Z,83.40
2018-10-21T09:17:55.888Z,83.50
2018-10-21T09:20:23.170Z,83.50
2018-10-21T09:22:50.402Z,83.40
2018-10-21T09:25:18.488Z,83.10
2018-10-21T09:27:45.683Z,82.20
2018-10-21T09:30:14.307Z,81.10
2018-10-21T09:32:41.601Z,81.40
2018-10-21T09:35:11.216Z,81.20
2018-10-21T09:37:38.841Z,81.40
2018-10-21T09:40:08.884Z,81.10
2018-10-21T09:42:36.157Z,79.80
2018-10-21T09:45:03.868Z,80.00
2018-10-21T09:47:31.202Z,80.30
2018-10-21T09:49:58.582Z,80.90
2018-10-21T09:52:25.724Z,81.10
2018-10-21T09:54:53.025Z,79.10
2018-10-21T09:57:20.304Z,79.10
2018-10-21T09:59:47.502Z,79.20
2018-10-21T10:02:20.453Z,77.60
2018-10-21T10:04:47.693Z,78.20
2018-10-21T10:07:15.097Z,78.10
2018-10-21T10:09:42.172Z,76.90
2018-10-21T10:12:09.407Z,76.40
2018-10-21T10:14:36.606Z,76.70
2018-10-21T10:17:05.106Z,76.50
2018-10-21T10:19:32.398Z,75.90
2018-10-21T10:21:59.621Z,75.10
2018-10-21T10:24:26.778Z,74.90
2018-10-21T10:26:54.051Z,74.20
2018-10-21T10:29:28.060Z,74.90
2018-10-21T10:32:02.117Z,75.00
2018-10-21T10:34:29.329Z,73.30
2018-10-21T10:36:56.531Z,73.20
2018-10-21T10:39:23.754Z,72.10
2018-10-21T10:41:50.945Z,72.30
2018-10-21T10:44:18.084Z,72.60
2018-10-21T10:46:45.268Z,71.50
2018-10-21T10:49:19.208Z,72.10
2018-10-21T10:51:46.395Z,72.80
2018-10-21T10:54:13.589Z,72.30
2018-10-21T10:56:40.752Z,71.60
2018-10-21T10:59:07.933Z,71.10
2018-10-21T11:01:35.101Z,70.60
2018-10-21T11:04:02.368Z,72.10
2018-10-21T11:06:29.552Z,70.60
2018-10-21T11:08:57.849Z,69.40
2018-10-21T11:11:25.008Z,67.90
2018-10-21T11:13:52.193Z,68.00
2018-10-21T11:16:19.487Z,69.00
2018-10-21T11:18:46.565Z,69.80
2018-10-21T11:21:13.801Z,70.00
2018-10-21T11:23:41.220Z,68.30
2018-10-21T11:26:08.409Z,68.00
2018-10-21T11:28:35.598Z,66.90
2018-10-21T11:31:02.947Z,67.30
2018-10-21T11:33:30.102Z,67.00
2018-10-21T11:35:57.321Z,66.30
2018-10-21T11:38:24.729Z,65.10
2018-10-21T11:40:51.909Z,64.70
2018-10-21T11:43:19.148Z,65.20
2018-10-21T11:45:46.390Z,65.10
2018-10-21T11:48:13.510Z,65.20
2018-10-21T11:50:41.149Z,64.90
2018-10-21T11:53:08.462Z,63.10
2018-10-21T11:55:37.152Z,62.20
2018-10-21T11:58:05.796Z,61.90
2018-10-21T12:00:33.009Z,61.30
2018-10-21T12:03:00.185Z,61.80
2018-10-21T12:05:27.378Z,61.80
2018-10-21T12:07:54.560Z,62.80
2018-10-21T12:10:21.719Z,62.60
2018-10-21T12:12:48.952Z,61.70
2018-10-21T12:15:16.150Z,61.70
2018-10-21T12:17:43.365Z,59.40
2018-10-21T12:20:10.541Z,60.10
2018-10-21T12:22:37.794Z,60.10
2018-10-21T12:25:05.360Z,59.70
2018-10-21T12:27:32.488Z,59.30
2018-10-21T12:29:59.645Z,58.90
2018-10-21T12:32:26.824Z,57.20
2018-10-21T12:34:54.048Z,58.80
2018-10-21T12:37:21.172Z,58.80
2018-10-21T12:39:48.453Z,58.90
2018-10-21T12:42:15.669Z,59.00
2018-10-21T12:44:42.882Z,57.60
2018-10-21T12:47:10.116Z,55.90
2018-10-21T12:49:37.255Z,57.00
2018-10-21T12:52:04.783Z,56.50
2018-10-21T12:54:32.039Z,55.60
2018-10-21T12:56:59.204Z,56.80
2018-10-21T12:59:26.375Z,57.70
2018-10-21T13:01:53.573Z,57.60
2018-10-21T13:04:20.841Z,56.90
2018-10-21T13:06:48.023Z,55.90
2018-10-21T13:09:15.221Z,56.50
2018-10-21T13:11:42.413Z,55.60
2018-10-21T13:14:16.566Z,54.90
2018-10-21T13:16:43.763Z,53.90
2018-10-21T13:19:11.018Z,55.70
2018-10-21T13:21:38.240Z,55.10
2018-10-21T13:24:05.437Z,53.40
2018-10-21T13:26:32.622Z,55.10
2018-10-21T13:28:59.867Z,55.60
2018-10-21T13:31:33.837Z,53.00
2018-10-21T13:34:01.053Z,54.50
2018-10-21T13:36:28.246Z,53.90
2018-10-21T13:38:55.422Z,53.90
2018-10-21T13:41:23.181Z,54.30
2018-10-21T13:43:50.353Z,52.00
2018-10-21T13:48:51.653Z,55.40
2018-10-21T13:51:18.912Z,54.10
2018-10-21T13:53:46.150Z,55.50
2018-10-21T13:56:13.288Z,54.70
2018-10-21T13:58:41.603Z,56.00
2018-10-21T14:01:08.936Z,58.50
2018-10-21T14:03:36.091Z,53.70
2018-10-21T14:06:03.278Z,56.50
2018-10-21T14:08:30.534Z,54.40
2018-10-21T14:10:58.364Z,55.60
2018-10-21T14:13:25.550Z,57.20
2018-10-21T14:15:52.763Z,56.50
2018-10-21T14:18:19.949Z,57.30
2018-10-21T14:20:47.127Z,55.90
2018-10-21T14:23:14.324Z,57.30
2018-10-21T14:25:41.581Z,55.70
2018-10-21T14:28:08.778Z,54.10
2018-10-21T14:30:35.984Z,54.50
2018-10-21T14:33:03.239Z,54.10
2018-10-21T14:35:30.419Z,52.40
2018-10-21T14:37:57.656Z,54.00
2018-10-21T14:40:24.839Z,54.20
2018-10-21T14:42:52.047Z,54.00
2018-10-21T14:45:19.273Z,55.70
2018-10-21T14:47:46.429Z,55.50
2018-10-21T14:50:14.207Z,55.60
2018-10-21T14:52:41.410Z,55.00
2018-10-21T14:55:09.599Z,55.10
2018-10-21T14:57:37.124Z,55.50
2018-10-21T15:00:06.296Z,56.20
2018-10-21T15:02:33.466Z,56.30
2018-10-21T15:05:00.653Z,56.60
2018-10-21T15:07:27.866Z,57.60
2018-10-21T15:09:55.152Z,57.60
2018-10-21T15:12:22.267Z,58.00
2018-10-21T15:14:49.525Z,57.20
2018-10-21T15:17:16.698Z,58.10
2018-10-21T15:19:43.882Z,58.60
2018-10-21T15:22:11.142Z,58.10
2018-10-21T15:24:38.266Z,57.30
2018-10-21T15:27:05.454Z,57.30
2018-10-21T15:29:32.640Z,57.90
2018-10-21T15:31:59.813Z,58.20
2018-10-21T15:34:27.001Z,57.90
2018-10-21T15:36:54.189Z,58.20
2018-10-21T15:39:21.369Z,58.80
2018-10-21T15:41:48.549Z,58.40
2018-10-21T15:44:15.835Z,58.80
2018-10-21T15:46:42.950Z,58.70
2018-10-21T15:49:10.169Z,59.30
2018-10-21T15:51:37.375Z,58.40
2018-10-21T15:54:04.639Z,59.00
2018-10-21T15:56:31.829Z,59.50
2018-10-21T15:58:59.019Z,58.80
2018-10-21T16:01:26.286Z,59.30
2018-10-21T16:03:53.494Z,59.10
2018-10-21T16:06:20.668Z,59.40
2018-10-21T16:08:47.853Z,60.00
2018-10-21T16:11:15.095Z,60.40
2018-10-21T16:13:42.315Z,60.80
2018-10-21T16:16:09.543Z,61.20
2018-10-21T16:18:36.742Z,60.90
2018-10-21T16:21:03.968Z,61.20
2018-10-21T16:23:31.184Z,61.10
2018-10-21T16:25:58.568Z,61.50
2018-10-21T16:28:25.752Z,62.00
2018-10-21T16:30:52.905Z,62.30
2018-10-21T16:33:20.085Z,62.80
2018-10-21T16:35:47.314Z,63.50
2018-10-21T16:38:14.566Z,63.00
2018-10-21T16:40:41.761Z,63.40
2018-10-21T16:45:42.866Z,63.90
2018-10-21T16:48:10.167Z,64.30
2018-10-21T16:50:37.896Z,64.10
2018-10-21T16:53:04.510Z,64.00
2018-10-21T16:55:31.682Z,64.40
2018-10-21T16:57:58.931Z,64.60
2018-10-21T17:00:26.294Z,64.50
2018-10-21T17:02:53.354Z,64.80
2018-10-21T17:05:20.556Z,64.70
2018-10-21T17:07:47.839Z,64.60
2018-10-21T17:10:15.305Z,64.60
2018-10-21T17:12:42.214Z,64.80
2018-10-21T17:15:10.417Z,64.90
2018-10-21T17:17:38.230Z,65.30
2018-10-21T17:20:07.924Z,65.30
2018-10-21T17:22:35.143Z,65.30
2018-10-21T17:25:02.440Z,65.60
2018-10-21T17:27:29.609Z,65.60
2018-10-21T17:29:56.794Z,66.10
2018-10-21T17:32:24.021Z,66.50
2018-10-21T17:34:51.216Z,66.40
2018-10-21T17:37:19.142Z,66.20
2018-10-21T17:39:46.321Z,66.90
2018-10-21T17:42:13.554Z,67.00
2018-10-21T17:44:40.750Z,67.80
2018-10-21T17:47:14.685Z,67.20
2018-10-21T17:49:41.870Z,67.60
2018-10-21T17:52:09.131Z,67.50
2018-10-21T17:54:36.252Z,67.70
2018-10-21T17:57:03.493Z,67.90
2018-10-21T17:59:30.697Z,68.10
2018-10-21T18:01:58.184Z,68.20
2018-10-21T18:04:27.136Z,68.40
2018-10-21T18:06:54.464Z,68.50
2018-10-21T18:09:21.570Z,68.50
2018-10-21T18:11:48.823Z,68.60
2018-10-21T18:14:16.014Z,68.80
2018-10-21T18:16:43.225Z,68.90
2018-10-21T18:19:10.469Z,69.10
2018-10-21T18:21:37.594Z,69.30
2018-10-21T18:24:05.085Z,69.10
2018-10-21T18:26:32.340Z,69.30
2018-10-21T18:28:59.504Z,68.90
2018-10-21T18:31:26.701Z,69.10
2018-10-21T18:33:54.027Z,69.20
2018-10-21T18:36:21.217Z,69.10
2018-10-21T18:38:48.402Z,69.30
2018-10-21T18:41:16.210Z,69.40
2018-10-21T18:43:43.250Z,69.60
2018-10-21T18:46:10.531Z,69.60
2018-10-21T18:48:39.734Z,69.70
2018-10-21T18:51:06.953Z,69.70
2018-10-21T18:53:34.143Z,69.40
2018-10-21T18:56:01.477Z,69.40
2018-10-21T18:58:28.678Z,69.80
2018-10-21T19:00:55.956Z,70.00
2018-10-21T19:03:29.924Z,70.10
2018-10-21T19:05:57.164Z,69.80
2018-10-21T19:08:24.403Z,70.10
2018-10-21T19:10:51.691Z,70.40
2018-10-21T19:13:19.036Z,70.40
2018-10-21T19:15:46.061Z,70.40
2018-10-21T19:18:13.259Z,70.50
2018-10-21T19:20:40.417Z,70.60
2018-10-21T19:23:07.682Z,70.70
2018-10-21T19:25:34.848Z,70.80
2018-10-21T19:28:02.201Z,71.30
2018-10-21T19:30:29.335Z,71.10
2018-10-21T19:32:56.509Z,71.20
2018-10-21T19:35:23.796Z,71.10
2018-10-21T19:37:51.057Z,71.50
2018-10-21T19:40:18.327Z,71.70
2018-10-21T19:42:45.533Z,71.70
2018-10-21T19:45:13.388Z,71.70
2018-10-21T19:47:40.771Z,71.70
2018-10-21T19:50:09.441Z,71.70
2018-10-21T19:52:36.717Z,72.40
2018-10-21T19:55:04.336Z,71.70
2018-10-21T19:57:31.463Z,71.50
2018-10-21T19:59:58.677Z,71.50
2018-10-21T20:02:25.974Z,71.60
2018-10-21T20:04:53.033Z,71.70
2018-10-21T20:07:20.261Z,71.60
2018-10-21T20:09:47.416Z,71.60
2018-10-21T20:12:14.681Z,71.60
2018-10-21T20:14:41.903Z,72.00
2018-10-21T20:17:09.086Z,72.00
2018-10-21T20:19:36.262Z,72.10
2018-10-21T20:22:04.925Z,72.10
2018-10-21T20:24:32.180Z,72.10
2018-10-21T20:26:59.318Z,72.20
2018-10-21T20:29:26.509Z,72.10
2018-10-21T20:31:53.729Z,72.20
2018-10-21T20:34:27.743Z,72.30
2018-10-21T20:36:54.942Z,72.40
2018-10-21T20:39:22.209Z,72.00
2018-10-21T20:41:49.385Z,71.90
2018-10-21T20:44:17.077Z,72.10
2018-10-21T20:46:44.246Z,72.10
2018-10-21T20:49:11.441Z,72.10
2018-10-21T20:51:38.788Z,72.30
2018-10-21T20:54:05.913Z,72.90
2018-10-21T20:56:33.030Z,73.10
2018-10-21T20:59:00.235Z,73.10
2018-10-21T21:01:27.472Z,73.50
2018-10-21T21:03:54.741Z,73.50
2018-10-21T21:06:21.936Z,73.60
2018-10-21T21:08:49.132Z,73.40
2018-10-21T21:11:16.324Z,73.40
2018-10-21T21:13:43.498Z,73.50
2018-10-21T21:16:10.764Z,73.80
2018-10-21T21:18:37.873Z,73.70
2018-10-21T21:21:05.084Z,73.60
2018-10-21T21:23:32.265Z,73.80
2018-10-21T21:25:59.449Z,73.80
2018-10-21T21:28:26.664Z,73.70
2018-10-21T21:30:53.903Z,73.60
2018-10-21T21:33:21.116Z,73.90
2018-10-21T21:35:48.298Z,74.10
2018-10-21T21:38:15.478Z,74.10
2018-10-21T21:40:42.684Z,74.30
2018-10-21T21:43:09.848Z,74.30
2018-10-21T21:45:37.023Z,74.00
2018-10-21T21:48:04.468Z,73.90
2018-10-21T21:50:31.621Z,73.80
2018-10-21T21:53:00.059Z,73.70
2018-10-21T21:55:27.250Z,73.60
2018-10-21T21:57:54.506Z,73.40
2018-10-21T22:00:21.665Z,73.50
2018-10-21T22:02:48.834Z,73.40
2018-10-21T22:05:16.019Z,74.10
2018-10-21T22:07:43.193Z,73.20
2018-10-21T22:10:12.122Z,73.40
2018-10-21T22:12:39.402Z,73.60
2018-10-21T22:15:06.618Z,73.60
2018-10-21T22:17:33.969Z,73.70
2018-10-21T22:20:01.202Z,73.60
2018-10-21T22:22:28.390Z,73.60
2018-10-21T22:24:55.578Z,73.60
2018-10-21T22:27:22.817Z,73.60
2018-10-21T22:29:50.004Z,73.50
2018-10-21T22:32:17.176Z,74.00
2018-10-21T22:34:44.441Z,74.50
2018-10-21T22:37:11.632Z,74.30
2018-10-21T22:39:38.924Z,74.30
2018-10-21T22:42:06.196Z,74.00
2018-10-21T22:44:33.439Z,74.00
2018-10-21T22:47:00.655Z,74.00
2018-10-21T22:49:27.829Z,74.10
2018-10-21T22:51:55.062Z,74.00
2018-10-21T22:54:22.264Z,74.50
2018-10-21T22:56:49.465Z,73.80
2018-10-21T22:59:16.642Z,73.90
2018-10-21T23:01:43.893Z,73.90
2018-10-21T23:04:11.229Z,73.80
2018-10-21T23:06:38.377Z,74.40
2018-10-21T23:09:07.161Z,74.10
2018-10-21T23:11:34.430Z,74.20
2018-10-21T23:14:01.537Z,74.10
2018-10-21T23:16:28.714Z,74.20
2018-10-21T23:19:09.168Z,74.10
2018-10-21T23:21:36.357Z,74.40
2018-10-21T23:24:03.591Z,74.30
2018-10-21T23:26:30.826Z,74.60
2018-10-21T23:28:58.018Z,74.40
2018-10-21T23:31:25.271Z,74.20
2018-10-21T23:33:52.446Z,74.50
2018-10-21T23:36:19.657Z,74.30
2018-10-21T23:38:46.843Z,74.20
2018-10-21T23:41:14.036Z,74.40
2018-10-21T23:43:41.292Z,75.90
2018-10-21T23:46:08.497Z,74.70
2018-10-21T23:48:35.684Z,74.50
2018-10-21T23:51:02.897Z,74.30
2018-10-21T23:53:30.068Z,74.40
2018-10-21T23:55:57.251Z,74.10
2018-10-21T23:58:24.451Z,75.60
